Time;durP1;ratioP1;P1;durP2;ratioP2;P2;SDS_P1;SDS_P2;PMS_P1;PMS_P2;Temp;Humidity;BMP_temperature;BMP_pressure;BME280_temperature;BME280_humidity;BME280_pressure;Samples;Min_cycle;Max_cycle;Signal;HPM_P1;HPM_P2
2023/09/21 00:00:27;;;;;;;;;;;21.80;70.50;;;;;;5073259;28;19912;-56
2023/09/21 00:02:55;;;;;;;;;;;21.80;70.50;;;;;;5073156;28;19909;-55
2023/09/21 00:05:24;;;;;;;;;;;21.80;70.50;;;;;;5073083;28;19916;-56
2023/09/21 00:07:50;;;;;;;;;;;21.80;70.50;;;;;;5073087;28;19908;-55
2023/09/21 00:10:17;;;;;;;;;;;21.70;70.50;;;;;;5073179;28;19935;-54
2023/09/21 00:12:43;;;;;;;;;;;21.70;71.30;;;;;;5072997;28;19912;-56
2023/09/21 00:15:08;;;;;;;;;;;21.70;70.60;;;;;;5072891;28;20432;-55
2023/09/21 00:17:34;;;;;;;;;;;21.70;70.50;;;;;;5072921;28;19908;-56
2023/09/21 00:20:00;;;;;;;;;;;21.80;70.40;;;;;;5073153;28;20412;-55
2023/09/21 00:22:28;;;;;;;;;;;21.70;70.30;;;;;;5072851;28;19908;-56
2023/09/21 00:24:53;;;;;;;;;;;21.70;70.40;;;;;;5072924;28;20337;-55
2023/09/21 00:27:19;;;;;;;;;;;21.80;70.50;;;;;;5072822;28;19951;-55
2023/09/21 00:29:48;;;;;;;;;;;21.70;70.30;;;;;;5072829;28;19983;-56
2023/09/21 00:32:14;;;;;;;;;;;21.70;70.30;;;;;;5072799;28;19909;-56
2023/09/21 00:34:40;;;;;;;;;;;21.70;70.40;;;;;;5072717;28;19967;-56
2023/09/21 00:37:05;;;;;;;;;;;21.70;70.30;;;;;;5072648;28;20323;-56
2023/09/21 00:39:32;;;;;;;;;;;21.80;70.30;;;;;;5072644;28;19908;-56
2023/09/21 00:41:57;;;;;;;;;;;21.70;70.30;;;;;;5072768;28;19908;-54
2023/09/21 00:44:23;;;;;;;;;;;21.70;70.40;;;;;;5072642;28;19954;-56
2023/09/21 00:46:48;;;;;;;;;;;21.70;70.30;;;;;;5072567;28;19938;-56
2023/09/21 00:49:17;;;;;;;;;;;21.70;70.30;;;;;;5072532;28;19915;-56
2023/09/21 00:51:42;;;;;;;;;;;21.70;70.30;;;;;;5072602;28;19916;-56
2023/09/21 00:54:12;;;;;;;;;;;21.70;70.40;;;;;;5071299;28;20008;-56
2023/09/21 00:56:38;;;;;;;;;;;21.70;70.30;;;;;;5072648;28;19916;-56
2023/09/21 00:59:04;;;;;;;;;;;21.70;70.30;;;;;;5072653;28;20018;-56
2023/09/21 01:01:31;;;;;;;;;;;21.70;70.30;;;;;;5075264;28;19944;-56
2023/09/21 01:04:05;;;;;;;;;;;21.70;70.30;;;;;;5076460;28;19908;-56
2023/09/21 01:06:31;;;;;;;;;;;21.70;70.20;;;;;;5083255;28;19914;-56
2023/09/21 01:08:57;;;;;;;;;;;21.70;71.00;;;;;;5076351;28;19909;-55
2023/09/21 01:11:22;;;;;;;;;;;21.70;70.20;;;;;;5075008;28;19908;-56
2023/09/21 01:13:48;;;;;;;;;;;21.70;70.10;;;;;;5076137;28;20368;-56
2023/09/21 01:16:15;;;;;;;;;;;21.70;70.10;;;;;;5076144;28;19931;-55
2023/09/21 01:18:41;;;;;;;;;;;21.70;70.10;;;;;;5076128;28;19909;-55
2023/09/21 01:21:08;;;;;;;;;;;21.70;70.10;;;;;;5075974;28;19909;-56
2023/09/21 01:23:34;;;;;;;;;;;21.70;70.10;;;;;;5076188;28;19909;-55
2023/09/21 01:26:01;;;;;;;;;;;21.70;70.10;;;;;;5075934;28;19908;-55
2023/09/21 01:28:29;;;;;;;;;;;21.70;70.00;;;;;;5075994;28;19909;-56
2023/09/21 01:30:56;;;;;;;;;;;21.70;70.00;;;;;;5075880;28;19915;-56
2023/09/21 01:33:23;;;;;;;;;;;21.70;69.90;;;;;;5076100;28;19999;-55
2023/09/21 01:35:48;;;;;;;;;;;21.70;69.90;;;;;;5075885;28;19912;-56
2023/09/21 01:38:14;;;;;;;;;;;21.70;69.80;;;;;;5075981;28;20326;-56
2023/09/21 01:40:40;;;;;;;;;;;21.70;69.80;;;;;;5075734;28;19920;-56
2023/09/21 01:43:06;;;;;;;;;;;21.70;69.80;;;;;;5075675;28;19908;-56
2023/09/21 01:45:32;;;;;;;;;;;21.70;69.80;;;;;;5075712;28;19954;-54
2023/09/21 01:47:58;;;;;;;;;;;21.70;69.70;;;;;;5075641;28;20280;-54
2023/09/21 01:50:25;;;;;;;;;;;21.70;69.80;;;;;;5075565;28;19954;-54
2023/09/21 01:52:50;;;;;;;;;;;21.70;69.70;;;;;;5075378;28;19956;-55
2023/09/21 01:55:16;;;;;;;;;;;21.70;69.70;;;;;;5075341;28;19959;-56
2023/09/21 01:57:43;;;;;;;;;;;21.70;69.60;;;;;;5075428;28;20372;-56
2023/09/21 02:00:14;;;;;;;;;;;21.70;69.70;;;;;;5075311;28;19908;-56
2023/09/21 02:02:40;;;;;;;;;;;21.70;69.60;;;;;;5073989;28;19909;-55
2023/09/21 02:05:10;;;;;;;;;;;21.70;69.60;;;;;;5073865;28;20020;-55
2023/09/21 02:07:36;;;;;;;;;;;21.70;70.30;;;;;;5075326;28;19908;-56
2023/09/21 02:10:01;;;;;;;;;;;21.70;69.60;;;;;;5075417;28;19909;-55
2023/09/21 02:12:27;;;;;;;;;;;21.70;69.60;;;;;;5075099;28;19909;-56
2023/09/21 02:14:52;;;;;;;;;;;21.70;69.60;;;;;;5075002;28;20264;-56
2023/09/21 02:17:18;;;;;;;;;;;21.70;69.60;;;;;;5073744;28;19908;-54
2023/09/21 02:19:43;;;;;;;;;;;21.70;69.60;;;;;;5075122;28;20369;-55
2023/09/21 02:22:10;;;;;;;;;;;21.70;69.60;;;;;;5074979;28;19913;-56
2023/09/21 02:24:35;;;;;;;;;;;21.70;69.60;;;;;;5074908;28;20359;-55
2023/09/21 02:27:01;;;;;;;;;;;21.70;69.50;;;;;;5074798;28;19908;-55
2023/09/21 02:29:28;;;;;;;;;;;21.70;69.50;;;;;;5074931;28;19909;-56
2023/09/21 02:31:53;;;;;;;;;;;21.70;69.60;;;;;;5074827;28;19951;-54
2023/09/21 02:34:19;;;;;;;;;;;21.70;69.50;;;;;;5074715;28;20352;-56
2023/09/21 02:36:45;;;;;;;;;;;21.70;69.40;;;;;;5073455;28;19909;-56
2023/09/21 02:39:11;;;;;;;;;;;21.70;69.50;;;;;;5074694;28;19935;-56
2023/09/21 02:41:37;;;;;;;;;;;21.60;69.30;;;;;;5074824;28;19908;-55
2023/09/21 02:44:04;;;;;;;;;;;21.70;69.40;;;;;;5074899;28;19908;-55
2023/09/21 02:46:30;;;;;;;;;;;21.70;69.40;;;;;;5073259;28;19912;-55
2023/09/21 02:48:55;;;;;;;;;;;21.70;69.40;;;;;;5074441;28;19995;-55
2023/09/21 02:51:22;;;;;;;;;;;21.60;69.30;;;;;;5074214;28;19908;-56
2023/09/21 02:53:48;;;;;;;;;;;21.60;69.30;;;;;;5074408;28;19924;-56
2023/09/21 02:56:14;;;;;;;;;;;21.60;69.20;;;;;;5072918;28;20331;-55
2023/09/21 02:58:40;;;;;;;;;;;21.60;69.30;;;;;;5074255;28;19912;-55
2023/09/21 03:01:06;;;;;;;;;;;21.70;69.40;;;;;;5074563;28;19908;-55
2023/09/21 03:03:31;;;;;;;;;;;21.60;69.20;;;;;;5074074;28;19915;-56
2023/09/21 03:05:57;;;;;;;;;;;21.60;69.20;;;;;;5074233;28;19962;-55
2023/09/21 03:08:22;;;;;;;;;;;21.60;69.20;;;;;;5074130;28;19912;-56
2023/09/21 03:10:49;;;;;;;;;;;21.60;69.20;;;;;;5073965;28;19915;-55
2023/09/21 03:13:18;;;;;;;;;;;21.60;69.20;;;;;;5073881;28;19931;-56
2023/09/21 03:15:48;;;;;;;;;;;21.60;69.10;;;;;;5072603;28;19913;-56
2023/09/21 03:18:13;;;;;;;;;;;21.60;69.10;;;;;;5073766;28;19947;-55
2023/09/21 03:20:40;;;;;;;;;;;21.60;69.20;;;;;;5073742;28;19960;-56
2023/09/21 03:23:11;;;;;;;;;;;21.50;69.10;;;;;;5073312;28;20436;-55
2023/09/21 03:25:40;;;;;;;;;;;21.50;69.10;;;;;;5073817;28;19916;-55
2023/09/21 03:28:15;;;;;;;;;;;21.50;69.10;;;;;;5072366;28;19908;-56
2023/09/21 03:30:41;;;;;;;;;;;21.50;69.00;;;;;;5073642;28;19909;-55
2023/09/21 03:33:07;;;;;;;;;;;21.50;68.90;;;;;;5073507;28;20007;-56
2023/09/21 03:35:33;;;;;;;;;;;21.50;69.00;;;;;;5073438;28;19913;-56
2023/09/21 03:37:58;;;;;;;;;;;21.50;69.00;;;;;;5073333;28;19908;-56
2023/09/21 03:40:30;;;;;;;;;;;21.40;68.90;;;;;;5073324;28;20012;-55
2023/09/21 03:42:55;;;;;;;;;;;21.40;68.90;;;;;;5080094;28;19909;-55
2023/09/21 03:45:25;;;;;;;;;;;21.40;69.00;;;;;;5073254;28;19908;-55
2023/09/21 03:47:53;;;;;;;;;;;21.40;68.90;;;;;;5073226;28;19908;-56
2023/09/21 03:50:19;;;;;;;;;;;21.40;68.90;;;;;;5073337;28;20009;-56
2023/09/21 03:52:44;;;;;;;;;;;21.40;68.80;;;;;;5072886;28;20372;-55
2023/09/21 03:55:15;;;;;;;;;;;21.40;68.80;;;;;;5073151;28;19913;-56
2023/09/21 03:57:41;;;;;;;;;;;21.40;68.70;;;;;;5079836;28;20011;-55
2023/09/21 04:02:50;;;;;;;;;;;21.40;69.00;;;;;;5080030;28;19915;-56
2023/09/21 04:05:18;;;;;;;;;;;21.40;68.90;;;;;;5072992;28;19908;-54
2023/09/21 04:07:45;;;;;;;;;;;21.40;68.80;;;;;;5072931;28;19909;-55
2023/09/21 04:10:11;;;;;;;;;;;21.30;68.80;;;;;;5072792;28;19915;-56
2023/09/21 04:12:39;;;;;;;;;;;21.30;68.90;;;;;;5073075;28;19962;-54
2023/09/21 04:15:08;;;;;;;;;;;21.30;68.90;;;;;;5071485;28;19920;-56
2023/09/21 04:17:33;;;;;;;;;;;21.30;68.90;;;;;;5072886;28;19915;-56
2023/09/21 04:19:59;;;;;;;;;;;21.30;68.80;;;;;;5072720;28;19912;-56
2023/09/21 04:22:25;;;;;;;;;;;21.30;68.80;;;;;;5072618;28;19912;-56
2023/09/21 04:24:51;;;;;;;;;;;21.30;68.70;;;;;;5072659;28;19909;-54
2023/09/21 04:27:17;;;;;;;;;;;21.30;68.70;;;;;;5072805;28;19916;-55
2023/09/21 04:29:43;;;;;;;;;;;21.30;68.70;;;;;;5071533;28;19909;-56
2023/09/21 04:32:09;;;;;;;;;;;21.30;68.60;;;;;;5072608;28;20261;-56
2023/09/21 04:34:36;;;;;;;;;;;21.30;68.60;;;;;;5071904;28;19912;-56
2023/09/21 04:37:02;;;;;;;;;;;21.30;68.60;;;;;;5072770;28;20353;-55
2023/09/21 04:39:27;;;;;;;;;;;21.30;68.50;;;;;;5071404;28;19908;-55
2023/09/21 04:41:53;;;;;;;;;;;21.30;68.50;;;;;;5072762;28;19915;-55
2023/09/21 04:44:18;;;;;;;;;;;21.30;68.50;;;;;;5072554;28;19916;-56
2023/09/21 04:46:44;;;;;;;;;;;21.30;68.50;;;;;;5072682;28;19908;-56
2023/09/21 04:49:10;;;;;;;;;;;21.30;68.50;;;;;;5072516;28;19916;-56
2023/09/21 04:51:35;;;;;;;;;;;21.30;68.40;;;;;;5072468;28;19951;-56
2023/09/21 04:54:01;;;;;;;;;;;21.30;68.40;;;;;;5072422;28;20007;-56
2023/09/21 04:56:27;;;;;;;;;;;21.20;68.30;;;;;;5072555;28;19999;-55
2023/09/21 04:58:55;;;;;;;;;;;21.30;68.30;;;;;;5071975;28;20218;-56
2023/09/21 05:01:25;;;;;;;;;;;21.30;68.30;;;;;;5071138;28;19916;-55
2023/09/21 05:03:50;;;;;;;;;;;21.20;68.30;;;;;;5072650;28;19920;-56
2023/09/21 05:06:18;;;;;;;;;;;21.20;68.30;;;;;;5072319;28;19915;-56
2023/09/21 05:08:44;;;;;;;;;;;21.30;68.40;;;;;;5072387;28;19909;-55
2023/09/21 05:11:09;;;;;;;;;;;21.30;68.40;;;;;;5072273;28;20296;-55
2023/09/21 05:13:36;;;;;;;;;;;21.20;68.20;;;;;;5072125;28;20388;-54
2023/09/21 05:16:02;;;;;;;;;;;21.30;68.20;;;;;;5072372;28;19931;-56
2023/09/21 05:18:27;;;;;;;;;;;21.20;68.20;;;;;;5072230;28;19914;-56
2023/09/21 05:20:53;;;;;;;;;;;21.30;68.10;;;;;;5072196;28;20383;-56
2023/09/21 05:23:18;;;;;;;;;;;21.30;68.00;;;;;;5072013;28;19912;-56
2023/09/21 05:25:44;;;;;;;;;;;21.30;68.10;;;;;;5071958;28;19909;-56
2023/09/21 05:28:09;;;;;;;;;;;21.30;68.00;;;;;;5072129;28;20003;-56
2023/09/21 05:30:35;;;;;;;;;;;21.30;68.00;;;;;;5072038;28;19934;-56
2023/09/21 05:33:01;;;;;;;;;;;21.30;68.00;;;;;;5072069;28;19958;-55
2023/09/21 05:35:27;;;;;;;;;;;21.30;67.90;;;;;;5071984;28;19912;-54
2023/09/21 05:37:53;;;;;;;;;;;21.30;67.90;;;;;;5072158;28;19948;-56
2023/09/21 05:40:19;;;;;;;;;;;21.30;67.90;;;;;;5071970;28;19919;-55
2023/09/21 05:42:45;;;;;;;;;;;21.30;67.80;;;;;;5070821;28;19908;-55
2023/09/21 05:45:10;;;;;;;;;;;21.30;67.80;;;;;;5071969;28;19915;-56
2023/09/21 05:47:37;;;;;;;;;;;21.30;67.80;;;;;;5075539;28;19915;-54
2023/09/21 05:50:05;;;;;;;;;;;21.20;67.70;;;;;;5075393;28;19912;-56
2023/09/21 05:52:32;;;;;;;;;;;21.30;67.80;;;;;;5075172;28;20349;-55
2023/09/21 05:54:57;;;;;;;;;;;21.30;67.90;;;;;;5075236;28;19922;-56
2023/09/21 05:57:23;;;;;;;;;;;21.30;67.80;;;;;;5075637;28;19908;-56
2023/09/21 05:59:49;;;;;;;;;;;21.30;67.80;;;;;;5075274;28;19908;-56
2023/09/21 06:02:15;;;;;;;;;;;21.30;67.80;;;;;;5075080;28;20327;-55
2023/09/21 06:04:41;;;;;;;;;;;21.30;68.20;;;;;;5075327;28;19912;-56
2023/09/21 06:07:07;;;;;;;;;;;21.20;67.70;;;;;;5075243;28;19916;-55
2023/09/21 06:09:33;;;;;;;;;;;21.20;67.70;;;;;;5073780;28;19915;-56
2023/09/21 06:11:59;;;;;;;;;;;21.20;67.80;;;;;;5075103;28;19913;-56
2023/09/21 06:14:24;;;;;;;;;;;21.20;67.80;;;;;;5074980;28;19923;-54
2023/09/21 06:16:51;;;;;;;;;;;21.20;67.80;;;;;;5074911;28;20411;-56
2023/09/21 06:19:17;;;;;;;;;;;21.20;67.70;;;;;;5074911;28;19908;-55
2023/09/21 06:21:43;;;;;;;;;;;21.20;67.70;;;;;;5075008;28;20416;-56
2023/09/21 06:24:08;;;;;;;;;;;21.20;67.70;;;;;;5075037;28;20375;-55
2023/09/21 06:26:34;;;;;;;;;;;21.20;67.80;;;;;;5074881;28;20395;-56
2023/09/21 06:29:00;;;;;;;;;;;21.20;67.80;;;;;;5074746;28;19989;-56
2023/09/21 06:31:25;;;;;;;;;;;21.20;67.80;;;;;;5074780;28;19916;-56
2023/09/21 06:33:53;;;;;;;;;;;21.10;67.90;;;;;;5074710;28;20094;-56
2023/09/21 06:36:20;;;;;;;;;;;21.10;68.00;;;;;;5074718;28;19916;-54
2023/09/21 06:38:50;;;;;;;;;;;21.10;68.00;;;;;;5074719;28;19957;-55
2023/09/21 06:41:15;;;;;;;;;;;21.10;68.70;;;;;;5074580;28;20418;-56
2023/09/21 06:43:44;;;;;;;;;;;21.10;67.90;;;;;;5074354;28;19908;-56
2023/09/21 06:46:09;;;;;;;;;;;21.10;68.00;;;;;;5074480;28;19912;-56
2023/09/21 06:48:35;;;;;;;;;;;21.10;68.00;;;;;;5072997;28;19958;-56
2023/09/21 06:51:01;;;;;;;;;;;21.00;68.00;;;;;;5074383;28;19909;-56
2023/09/21 06:53:28;;;;;;;;;;;21.10;68.10;;;;;;5074220;28;19955;-56
2023/09/21 06:55:55;;;;;;;;;;;21.10;68.10;;;;;;5074404;28;19944;-54
2023/09/21 06:58:20;;;;;;;;;;;21.10;67.90;;;;;;5073376;28;19912;-56
2023/09/21 07:00:46;;;;;;;;;;;21.10;67.90;;;;;;5074038;28;19947;-56
2023/09/21 07:03:12;;;;;;;;;;;21.10;67.90;;;;;;5074104;28;19908;-56
2023/09/21 07:05:40;;;;;;;;;;;21.10;67.90;;;;;;5074107;28;19908;-54
2023/09/21 07:08:06;;;;;;;;;;;21.10;67.80;;;;;;5073999;28;20038;-56
2023/09/21 07:10:32;;;;;;;;;;;21.10;67.90;;;;;;5074178;28;19908;-56
2023/09/21 07:12:58;;;;;;;;;;;21.10;68.00;;;;;;5072833;28;20392;-55
2023/09/21 07:15:23;;;;;;;;;;;21.10;68.00;;;;;;5073721;28;19931;-55
2023/09/21 07:17:50;;;;;;;;;;;21.10;68.00;;;;;;5073972;28;19912;-55
2023/09/21 07:20:23;;;;;;;;;;;21.10;68.10;;;;;;5074034;28;20379;-56
2023/09/21 07:22:49;;;;;;;;;;;21.10;68.10;;;;;;5080607;28;19954;-55
2023/09/21 07:25:15;;;;;;;;;;;21.10;68.10;;;;;;5073871;28;19912;-56
2023/09/21 07:27:40;;;;;;;;;;;21.10;68.10;;;;;;5073804;28;19931;-56
2023/09/21 07:30:06;;;;;;;;;;;21.10;68.10;;;;;;5073556;28;19909;-56
2023/09/21 07:32:32;;;;;;;;;;;21.10;68.00;;;;;;5073633;28;19931;-55
2023/09/21 07:34:58;;;;;;;;;;;21.10;67.90;;;;;;5073390;28;20284;-55
2023/09/21 07:37:23;;;;;;;;;;;21.10;67.90;;;;;;5073518;28;19908;-56
2023/09/21 07:39:49;;;;;;;;;;;21.10;67.90;;;;;;5073488;28;19919;-56
2023/09/21 07:42:15;;;;;;;;;;;21.10;68.00;;;;;;5073395;28;19962;-56
2023/09/21 07:44:43;;;;;;;;;;;21.10;68.00;;;;;;5073483;28;19958;-56
2023/09/21 07:47:10;;;;;;;;;;;21.10;68.00;;;;;;5073621;28;20277;-55
2023/09/21 07:49:35;;;;;;;;;;;21.10;68.00;;;;;;5073307;28;19916;-55
2023/09/21 07:52:01;;;;;;;;;;;21.10;68.10;;;;;;5073021;28;20273;-55
2023/09/21 07:54:29;;;;;;;;;;;21.10;68.10;;;;;;5073141;28;19919;-56
2023/09/21 07:56:54;;;;;;;;;;;21.20;68.10;;;;;;5073140;28;19958;-56
2023/09/21 07:59:20;;;;;;;;;;;21.20;68.30;;;;;;5073327;28;19912;-56
2023/09/21 08:01:48;;;;;;;;;;;21.20;68.50;;;;;;5073014;28;19916;-56
2023/09/21 08:04:14;;;;;;;;;;;21.20;68.60;;;;;;5073270;28;19931;-56
2023/09/21 08:06:39;;;;;;;;;;;21.30;68.70;;;;;;5073001;28;19912;-56
2023/09/21 08:09:05;;;;;;;;;;;21.30;68.50;;;;;;5072740;28;19909;-56
2023/09/21 08:11:30;;;;;;;;;;;21.30;68.50;;;;;;5072737;28;19908;-54
2023/09/21 08:13:58;;;;;;;;;;;21.40;68.20;;;;;;5072795;28;19908;-56
2023/09/21 08:16:23;;;;;;;;;;;21.40;67.90;;;;;;5072811;28;19908;-56
2023/09/21 08:18:49;;;;;;;;;;;21.40;67.90;;;;;;5073015;28;19942;-56
2023/09/21 08:21:16;;;;;;;;;;;21.50;67.90;;;;;;5072899;28;19952;-55
2023/09/21 08:23:42;;;;;;;;;;;21.50;67.50;;;;;;5072940;28;19962;-54
2023/09/21 08:26:08;;;;;;;;;;;21.50;67.40;;;;;;5072600;28;19991;-55
2023/09/21 08:28:33;;;;;;;;;;;21.60;67.30;;;;;;5072699;28;19943;-55
2023/09/21 08:30:59;;;;;;;;;;;21.60;67.10;;;;;;5072617;28;19908;-55
2023/09/21 08:33:24;;;;;;;;;;;21.70;67.10;;;;;;5072777;28;20007;-56
2023/09/21 08:35:50;;;;;;;;;;;21.70;67.00;;;;;;5072616;28;19955;-54
2023/09/21 08:38:17;;;;;;;;;;;21.70;66.80;;;;;;5072571;28;19991;-55
2023/09/21 08:40:44;;;;;;;;;;;21.80;66.70;;;;;;5071334;28;19953;-54
2023/09/21 08:43:10;;;;;;;;;;;21.80;66.60;;;;;;5072717;28;19908;-54
2023/09/21 08:45:35;;;;;;;;;;;21.90;66.60;;;;;;5071741;28;20003;-56
2023/09/21 08:48:01;;;;;;;;;;;21.90;66.60;;;;;;5072498;28;20300;-56
2023/09/21 08:50:27;;;;;;;;;;;22.00;66.70;;;;;;5072532;28;19908;-56
2023/09/21 08:52:53;;;;;;;;;;;22.00;66.50;;;;;;5072409;28;19946;-55
2023/09/21 08:55:21;;;;;;;;;;;22.00;66.40;;;;;;5071287;28;19912;-56
2023/09/21 08:57:47;;;;;;;;;;;22.00;66.10;;;;;;5072418;28;20479;-55
2023/09/21 09:00:12;;;;;;;;;;;22.00;66.40;;;;;;5072640;28;19943;-55
2023/09/21 09:02:38;;;;;;;;;;;22.00;66.60;;;;;;5071153;28;19908;-55
2023/09/21 09:05:07;;;;;;;;;;;22.00;66.70;;;;;;5072281;28;20369;-56
2023/09/21 09:07:37;;;;;;;;;;;21.90;66.70;;;;;;5072761;28;19958;-56
2023/09/21 09:10:04;;;;;;;;;;;22.00;66.50;;;;;;5072328;28;19962;-56
2023/09/21 09:12:30;;;;;;;;;;;22.00;66.30;;;;;;5072469;28;20006;-56
2023/09/21 09:14:57;;;;;;;;;;;22.10;66.20;;;;;;5072325;28;20445;-56
2023/09/21 09:17:28;;;;;;;;;;;22.10;66.30;;;;;;5072553;28;19909;-56
2023/09/21 09:19:53;;;;;;;;;;;22.00;66.20;;;;;;5072383;28;20326;-55
2023/09/21 09:22:18;;;;;;;;;;;22.00;66.90;;;;;;5075752;28;19991;-56
2023/09/21 09:24:51;;;;;;;;;;;22.00;66.90;;;;;;5076018;28;19908;-56
2023/09/21 09:27:17;;;;;;;;;;;21.90;66.70;;;;;;5076131;28;20015;-56
2023/09/21 09:29:46;;;;;;;;;;;22.00;66.50;;;;;;5075966;28;20328;-55
2023/09/21 09:32:14;;;;;;;;;;;22.10;66.70;;;;;;5075858;28;19909;-56
2023/09/21 09:34:39;;;;;;;;;;;22.10;66.50;;;;;;5074547;28;19912;-56
2023/09/21 09:37:05;;;;;;;;;;;22.10;66.70;;;;;;5074626;28;19931;-56
2023/09/21 09:39:33;;;;;;;;;;;22.10;66.60;;;;;;5075690;28;19908;-56
2023/09/21 09:41:58;;;;;;;;;;;22.20;66.10;;;;;;5075573;28;19908;-56
2023/09/21 09:44:24;;;;;;;;;;;22.40;65.80;;;;;;5074276;28;19931;-56
2023/09/21 09:46:52;;;;;;;;;;;22.50;65.20;;;;;;5074304;28;19916;-56
2023/09/21 09:49:18;;;;;;;;;;;22.50;65.90;;;;;;5075442;28;19958;-56
2023/09/21 09:51:46;;;;;;;;;;;22.60;64.70;;;;;;5057244;28;19917;-56
2023/09/21 09:54:16;;;;;;;;;;;22.70;64.50;;;;;;5075368;28;19912;-56
2023/09/21 09:56:41;;;;;;;;;;;22.70;64.30;;;;;;5074565;28;19909;-56
2023/09/21 09:59:11;;;;;;;;;;;22.80;64.10;;;;;;5075187;28;19908;-55
2023/09/21 10:01:41;;;;;;;;;;;22.90;63.90;;;;;;5075371;28;19952;-56
2023/09/21 10:04:07;;;;;;;;;;;22.90;63.80;;;;;;5075210;28;19908;-55
2023/09/21 10:06:35;;;;;;;;;;;22.80;63.90;;;;;;5075271;28;19909;-56
2023/09/21 10:09:02;;;;;;;;;;;22.80;64.20;;;;;;5075325;28;19912;-55
2023/09/21 10:11:28;;;;;;;;;;;22.80;64.20;;;;;;5075343;28;19909;-55
2023/09/21 10:13:54;;;;;;;;;;;22.90;64.10;;;;;;5075113;28;20007;-56
2023/09/21 10:16:20;;;;;;;;;;;23.00;63.50;;;;;;5075225;28;19908;-56
2023/09/21 10:18:46;;;;;;;;;;;23.10;62.60;;;;;;5073792;28;20423;-55
2023/09/21 10:21:29;;;;;;;;;;;23.00;62.70;;;;;;5073490;28;19913;-56
2023/09/21 10:24:12;;;;;;;;;;;23.00;63.00;;;;;;5074967;28;20075;-55
2023/09/21 10:26:38;;;;;;;;;;;23.10;62.70;;;;;;5074731;28;20422;-56
2023/09/21 10:29:07;;;;;;;;;;;23.20;62.20;;;;;;5074802;28;20012;-56
2023/09/21 10:31:33;;;;;;;;;;;23.20;61.90;;;;;;5074173;28;19919;-54
2023/09/21 10:33:59;;;;;;;;;;;23.20;61.70;;;;;;5073929;28;19908;-55
2023/09/21 10:36:27;;;;;;;;;;;23.40;61.30;;;;;;5075004;28;19916;-55
2023/09/21 10:39:05;;;;;;;;;;;23.50;60.70;;;;;;5074553;28;20360;-56
2023/09/21 10:41:31;;;;;;;;;;;23.40;60.80;;;;;;5074663;28;19919;-56
2023/09/21 10:43:57;;;;;;;;;;;23.40;61.20;;;;;;5074568;28;19984;-56
2023/09/21 10:46:23;;;;;;;;;;;23.30;61.40;;;;;;5074350;28;19915;-56
2023/09/21 10:48:56;;;;;;;;;;;23.40;61.30;;;;;;5074450;28;19909;-56
2023/09/21 10:51:22;;;;;;;;;;;23.40;61.10;;;;;;5072707;28;19909;-55
2023/09/21 10:53:48;;;;;;;;;;;23.30;61.50;;;;;;5073134;28;20332;-56
2023/09/21 10:56:14;;;;;;;;;;;23.30;61.10;;;;;;5072818;28;19958;-55
2023/09/21 10:58:40;;;;;;;;;;;23.30;61.20;;;;;;5074238;28;19912;-56
2023/09/21 11:01:05;;;;;;;;;;;23.40;61.30;;;;;;5074055;28;19915;-56
2023/09/21 11:03:31;;;;;;;;;;;23.50;61.00;;;;;;5074090;28;19908;-56
2023/09/21 11:05:56;;;;;;;;;;;23.50;61.30;;;;;;5072828;28;19916;-56
2023/09/21 11:08:24;;;;;;;;;;;23.50;61.00;;;;;;5074254;28;19987;-56
2023/09/21 11:10:50;;;;;;;;;;;23.60;60.10;;;;;;5074113;28;19909;-56
2023/09/21 11:13:18;;;;;;;;;;;23.60;60.30;;;;;;5074229;28;20380;-56
2023/09/21 11:15:44;;;;;;;;;;;23.70;60.30;;;;;;5073891;28;19959;-56
2023/09/21 11:18:10;;;;;;;;;;;23.60;60.50;;;;;;5073840;28;19908;-56
2023/09/21 11:20:35;;;;;;;;;;;23.50;60.70;;;;;;5073976;28;19916;-56
2023/09/21 11:23:01;;;;;;;;;;;23.50;61.10;;;;;;5073786;28;19963;-56
2023/09/21 11:25:27;;;;;;;;;;;23.50;61.00;;;;;;5073631;28;20392;-56
2023/09/21 11:27:52;;;;;;;;;;;23.50;60.90;;;;;;5073575;28;19915;-56
2023/09/21 11:30:18;;;;;;;;;;;23.70;60.90;;;;;;5073800;28;19908;-56
2023/09/21 11:32:45;;;;;;;;;;;23.70;60.30;;;;;;5073627;28;19958;-56
2023/09/21 11:35:11;;;;;;;;;;;23.70;60.30;;;;;;5073430;28;20317;-56
2023/09/21 11:37:37;;;;;;;;;;;23.70;60.20;;;;;;5073403;28;19915;-56
2023/09/21 11:40:11;;;;;;;;;;;23.60;60.50;;;;;;5073403;28;19935;-55
2023/09/21 11:42:37;;;;;;;;;;;23.60;60.90;;;;;;5079210;28;19908;-56
2023/09/21 11:45:03;;;;;;;;;;;23.50;61.30;;;;;;5071746;28;20347;-56
2023/09/21 11:47:29;;;;;;;;;;;23.50;62.30;;;;;;5073508;28;19908;-56
2023/09/21 11:49:55;;;;;;;;;;;23.40;61.80;;;;;;5073257;28;19952;-56
2023/09/21 11:52:22;;;;;;;;;;;23.40;62.30;;;;;;5072915;28;19932;-56
2023/09/21 11:54:48;;;;;;;;;;;23.40;62.20;;;;;;5073207;28;19912;-56
2023/09/21 11:57:14;;;;;;;;;;;23.50;62.20;;;;;;5073098;28;20422;-56
2023/09/21 11:59:42;;;;;;;;;;;23.40;62.30;;;;;;5073299;28;20376;-55
2023/09/21 12:02:13;;;;;;;;;;;23.40;62.40;;;;;;5072990;28;20261;-55
2023/09/21 12:04:39;;;;;;;;;;;23.60;62.50;;;;;;5072017;28;20261;-55
2023/09/21 12:07:05;;;;;;;;;;;23.60;62.50;;;;;;5073080;28;19908;-56
2023/09/21 12:09:30;;;;;;;;;;;23.70;62.50;;;;;;5072984;28;19928;-55
2023/09/21 12:11:56;;;;;;;;;;;23.80;62.00;;;;;;5072815;28;19908;-55
2023/09/21 12:14:22;;;;;;;;;;;23.90;61.80;;;;;;5072778;28;20003;-56
2023/09/21 12:16:50;;;;;;;;;;;24.00;61.60;;;;;;5071712;28;19908;-56
2023/09/21 12:19:18;;;;;;;;;;;24.00;61.50;;;;;;5072810;28;19944;-55
2023/09/21 12:21:45;;;;;;;;;;;23.90;61.60;;;;;;5072836;28;20446;-56
2023/09/21 12:24:10;;;;;;;;;;;23.90;61.70;;;;;;5072760;28;19962;-55
2023/09/21 12:26:36;;;;;;;;;;;23.90;62.00;;;;;;5072647;28;19909;-56
2023/09/21 12:29:02;;;;;;;;;;;24.00;61.60;;;;;;5072813;28;19934;-56
2023/09/21 12:31:28;;;;;;;;;;;24.00;61.60;;;;;;5072911;28;19958;-55
2023/09/21 12:33:55;;;;;;;;;;;24.00;61.90;;;;;;5072854;28;19908;-56
2023/09/21 12:36:23;;;;;;;;;;;24.00;61.60;;;;;;5072625;28;20357;-56
2023/09/21 12:38:50;;;;;;;;;;;24.00;61.90;;;;;;5072433;28;20240;-56
2023/09/21 12:41:16;;;;;;;;;;;24.00;61.80;;;;;;5072563;28;19909;-56
2023/09/21 12:43:42;;;;;;;;;;;23.90;62.20;;;;;;5072641;28;20294;-56
2023/09/21 12:46:08;;;;;;;;;;;24.00;62.20;;;;;;5072557;28;19962;-56
2023/09/21 12:48:38;;;;;;;;;;;24.00;62.00;;;;;;5072786;28;20441;-55
2023/09/21 12:51:03;;;;;;;;;;;23.90;62.20;;;;;;5072469;28;19909;-56
2023/09/21 12:53:29;;;;;;;;;;;23.80;62.40;;;;;;5072520;28;19935;-56
2023/09/21 12:55:55;;;;;;;;;;;23.70;62.90;;;;;;5073804;28;19912;-56
2023/09/21 12:58:21;;;;;;;;;;;23.70;63.30;;;;;;5076309;28;19912;-56
2023/09/21 13:00:46;;;;;;;;;;;23.70;63.60;;;;;;5076490;28;19981;-56
2023/09/21 13:03:12;;;;;;;;;;;23.70;63.90;;;;;;5076568;28;20003;-55
2023/09/21 13:05:40;;;;;;;;;;;23.60;64.10;;;;;;5075227;28;19909;-55
2023/09/21 13:08:06;;;;;;;;;;;23.70;64.20;;;;;;5076581;28;19908;-56
2023/09/21 13:10:31;;;;;;;;;;;23.60;64.40;;;;;;5076351;28;19909;-56
2023/09/21 13:12:58;;;;;;;;;;;23.60;64.90;;;;;;5076380;28;19915;-56
2023/09/21 13:15:26;;;;;;;;;;;23.50;65.10;;;;;;5076278;28;20403;-56
2023/09/21 13:17:52;;;;;;;;;;;23.50;65.00;;;;;;5076207;28;20008;-56
2023/09/21 13:20:19;;;;;;;;;;;23.40;65.20;;;;;;5074962;28;19908;-56
2023/09/21 13:22:46;;;;;;;;;;;23.40;65.20;;;;;;5076086;28;19916;-56
2023/09/21 13:25:12;;;;;;;;;;;23.40;65.30;;;;;;5076024;28;19909;-56
2023/09/21 13:27:38;;;;;;;;;;;23.40;65.40;;;;;;5075894;28;19916;-55
2023/09/21 13:30:04;;;;;;;;;;;23.30;65.50;;;;;;5075796;28;20221;-56
2023/09/21 13:32:29;;;;;;;;;;;23.30;65.90;;;;;;5075882;28;19909;-57
2023/09/21 13:34:55;;;;;;;;;;;23.20;65.90;;;;;;5075847;28;19924;-55
2023/09/21 13:37:20;;;;;;;;;;;23.20;66.10;;;;;;5075747;28;19912;-55
2023/09/21 13:39:47;;;;;;;;;;;23.20;66.30;;;;;;5076028;28;19908;-56
2023/09/21 13:42:12;;;;;;;;;;;23.20;66.40;;;;;;5075771;28;19908;-56
2023/09/21 13:44:37;;;;;;;;;;;23.20;66.60;;;;;;5057800;28;19909;-55
2023/09/21 13:47:04;;;;;;;;;;;23.20;66.70;;;;;;5075631;28;19908;-56
2023/09/21 13:49:30;;;;;;;;;;;23.20;67.00;;;;;;5075602;28;19915;-55
2023/09/21 13:51:55;;;;;;;;;;;23.20;67.00;;;;;;5075510;28;19920;-56
2023/09/21 13:54:21;;;;;;;;;;;23.20;67.10;;;;;;5075445;28;19920;-54
2023/09/21 13:56:46;;;;;;;;;;;23.20;67.30;;;;;;5075422;28;19909;-55
2023/09/21 13:59:12;;;;;;;;;;;23.10;67.50;;;;;;5075362;28;19913;-55
2023/09/21 14:01:38;;;;;;;;;;;23.10;67.60;;;;;;5075586;28;19916;-56
2023/09/21 14:04:04;;;;;;;;;;;23.10;67.80;;;;;;5074136;28;19917;-55
2023/09/21 14:06:29;;;;;;;;;;;23.10;68.00;;;;;;5074962;28;20279;-56
2023/09/21 14:08:55;;;;;;;;;;;23.10;68.10;;;;;;5075428;28;19958;-56
2023/09/21 14:11:21;;;;;;;;;;;23.10;68.50;;;;;;5073910;28;19954;-56
2023/09/21 14:13:46;;;;;;;;;;;23.00;68.40;;;;;;5075041;28;19908;-56